Time;durP1;ratioP1;P1;durP2;ratioP2;P2;SDS_P1;SDS_P2;PMS_P1;PMS_P2;Temp;Humidity;BMP_temperature;BMP_pressure;BME280_temperature;BME280_humidity;BME280_pressure;Samples;Min_cycle;Max_cycle;Signal;HPM_P1;HPM_P2
2023/08/15 00:01:22;;;;;;;6.20;3.90;;;18.80;99.90;;;;;;4935518;28;20613;-48
2023/08/15 00:03:50;;;;;;;7.70;4.23;;;18.70;99.90;;;;;;4943167;28;20222;-59
2023/08/15 00:06:18;;;;;;;7.47;4.10;;;18.80;99.90;;;;;;4942129;28;20218;-47
2023/08/15 00:08:45;;;;;;;5.73;3.70;;;18.80;99.90;;;;;;4946067;29;20742;-61
2023/08/15 00:11:13;;;;;;;5.30;3.73;;;18.90;99.90;;;;;;4925447;28;20302;-45
2023/08/15 00:13:40;;;;;;;6.27;3.97;;;18.90;99.90;;;;;;4946817;29;20191;-46
2023/08/15 00:16:07;;;;;;;7.10;4.43;;;18.90;99.90;;;;;;4931005;29;20218;-51
2023/08/15 00:18:34;;;;;;;5.07;4.00;;;18.70;99.90;;;;;;4941287;29;20667;-49
2023/08/15 00:21:01;;;;;;;5.47;3.77;;;18.80;99.90;;;;;;4936799;28;20198;-60
2023/08/15 00:23:27;;;;;;;6.50;3.63;;;18.80;99.90;;;;;;4946509;28;20222;-45
2023/08/15 00:25:54;;;;;;;4.43;3.73;;;18.90;99.90;;;;;;4943904;28;20211;-58
2023/08/15 00:28:22;;;;;;;5.93;4.20;;;18.90;99.90;;;;;;4925420;28;20895;-50
2023/08/15 00:30:50;;;;;;;8.53;3.90;;;18.80;99.90;;;;;;4941283;28;20210;-60
2023/08/15 00:33:17;;;;;;;6.60;3.87;;;18.80;99.90;;;;;;4938351;28;20253;-45
2023/08/15 00:35:44;;;;;;;4.87;4.30;;;18.90;99.90;;;;;;4940295;28;20770;-59
2023/08/15 00:38:11;;;;;;;7.80;4.00;;;18.80;99.90;;;;;;4943870;28;20942;-47
2023/08/15 00:40:39;;;;;;;9.03;4.10;;;18.80;99.90;;;;;;4931704;29;20716;-46
2023/08/15 00:43:06;;;;;;;4.50;3.87;;;18.80;99.90;;;;;;4908280;29;20813;-47
2023/08/15 00:45:38;;;;;;;6.10;4.20;;;18.80;99.90;;;;;;4935191;28;20689;-48
2023/08/15 00:48:06;;;;;;;6.30;4.40;;;18.80;99.90;;;;;;4930734;28;20203;-49
2023/08/15 00:50:34;;;;;;;6.30;3.87;;;18.70;99.90;;;;;;4955914;28;20226;-46
2023/08/15 00:53:02;;;;;;;5.23;3.93;;;18.80;99.90;;;;;;4920848;29;20221;-59
2023/08/15 00:55:29;;;;;;;4.43;3.43;;;18.80;99.90;;;;;;4945286;29;20277;-48
2023/08/15 00:57:56;;;;;;;4.27;3.83;;;18.60;99.90;;;;;;4913609;29;20615;-59
2023/08/15 01:00:23;;;;;;;7.70;4.70;;;18.60;99.90;;;;;;4932320;29;20214;-56
2023/08/15 01:02:52;;;;;;;4.57;4.07;;;18.60;99.90;;;;;;4932182;28;20698;-58
2023/08/15 01:05:21;;;;;;;5.13;4.23;;;18.60;99.90;;;;;;4944740;28;20272;-48
2023/08/15 01:07:48;;;;;;;5.80;4.13;;;18.60;99.90;;;;;;4939581;28;20257;-59
2023/08/15 01:10:15;;;;;;;4.00;3.70;;;18.60;99.90;;;;;;4943227;28;20992;-47
2023/08/15 01:12:47;;;;;;;5.67;3.80;;;18.60;99.90;;;;;;4935448;29;20255;-47
2023/08/15 01:15:19;;;;;;;4.80;3.87;;;18.60;99.90;;;;;;4931855;29;20226;-48
2023/08/15 01:17:55;;;;;;;4.90;3.90;;;18.70;99.90;;;;;;4943987;28;20203;-59
2023/08/15 01:20:28;;;;;;;6.27;4.50;;;18.60;99.90;;;;;;4943904;28;20211;-48
2023/08/15 01:22:59;;;;;;;4.30;3.97;;;18.80;99.90;;;;;;4938749;28;20795;-58
2023/08/15 01:25:27;;;;;;;3.97;3.67;;;18.70;99.90;;;;;;4945208;29;20218;-52
2023/08/15 01:27:54;;;;;;;4.63;3.70;;;18.50;99.90;;;;;;4937286;28;20735;-45
2023/08/15 01:30:23;;;;;;;4.73;4.33;;;18.50;99.90;;;;;;4940918;28;20235;-54
2023/08/15 01:32:59;;;;;;;4.30;3.90;;;18.50;99.90;;;;;;4943012;28;20298;-51
2023/08/15 01:35:32;;;;;;;8.37;4.30;;;18.20;99.90;;;;;;4936353;28;20288;-51
2023/08/15 01:38:03;;;;;;;6.67;3.73;;;18.10;99.90;;;;;;4934657;28;20252;-52
2023/08/15 01:40:36;;;;;;;5.73;3.90;;;18.10;99.90;;;;;;4943645;28;20574;-52
2023/08/15 01:43:03;;;;;;;3.97;3.70;;;18.60;99.90;;;;;;4955014;28;20253;-53
2023/08/15 01:45:31;;;;;;;4.80;4.00;;;18.50;99.90;;;;;;4925030;28;20254;-48
2023/08/15 01:47:58;;;;;;;6.17;4.13;;;18.40;99.90;;;;;;4951824;28;20261;-56
2023/08/15 01:50:25;;;;;;;5.17;4.13;;;18.30;99.90;;;;;;4918042;29;20214;-49
2023/08/15 01:52:52;;;;;;;4.23;3.50;;;18.20;99.90;;;;;;4939050;28;20198;-55
2023/08/15 01:55:19;;;;;;;6.80;4.30;;;18.30;99.90;;;;;;4929013;29;20306;-50
2023/08/15 01:57:47;;;;;;;4.87;4.47;;;18.30;99.90;;;;;;4944418;28;20224;-54
2023/08/15 02:00:15;;;;;;;4.90;4.33;;;18.30;99.90;;;;;;4915927;28;20211;-58
2023/08/15 02:02:45;;;;;;;4.77;4.27;;;18.30;99.90;;;;;;4943497;28;20244;-54
2023/08/15 02:05:13;;;;;;;4.83;4.20;;;18.20;99.90;;;;;;4941216;28;20226;-47
2023/08/15 02:07:40;;;;;;;4.73;3.30;;;18.20;99.90;;;;;;4934036;28;21790;-57
2023/08/15 02:10:07;;;;;;;6.53;4.87;;;18.50;99.90;;;;;;4951046;28;20203;-53
2023/08/15 02:12:34;;;;;;;4.80;4.37;;;18.30;99.90;;;;;;4943533;28;20200;-50
2023/08/15 02:15:04;;;;;;;4.23;3.83;;;18.20;99.90;;;;;;4937136;28;20226;-52
2023/08/15 02:17:31;;;;;;;5.63;4.37;;;18.10;99.90;;;;;;4947034;28;20214;-53
2023/08/15 02:19:57;;;;;;;6.93;4.40;;;18.00;99.90;;;;;;4954624;28;20285;-54
2023/08/15 02:22:24;;;;;;;4.43;4.03;;;18.20;99.90;;;;;;4934954;28;20195;-49
2023/08/15 02:24:51;;;;;;;4.53;4.13;;;18.20;99.90;;;;;;4939583;28;20940;-56
2023/08/15 02:27:18;;;;;;;5.93;4.00;;;18.20;99.90;;;;;;4947158;28;20195;-49
2023/08/15 02:29:45;;;;;;;4.90;4.40;;;18.20;99.90;;;;;;4930943;28;20219;-55
2023/08/15 02:32:14;;;;;;;5.60;4.50;;;18.20;99.90;;;;;;4947369;29;20190;-53
2023/08/15 02:34:41;;;;;;;7.07;4.60;;;18.20;99.90;;;;;;4943248;28;20234;-52
2023/08/15 02:37:08;;;;;;;4.43;4.03;;;18.10;99.90;;;;;;4940268;28;20202;-55
2023/08/15 02:39:35;;;;;;;4.90;4.10;;;18.00;99.90;;;;;;4943486;28;20213;-50
2023/08/15 02:42:02;;;;;;;6.80;4.60;;;18.20;99.90;;;;;;4938529;29;20215;-52
2023/08/15 02:44:29;;;;;;;7.90;4.13;;;18.20;99.90;;;;;;4945676;28;20625;-48
2023/08/15 02:46:58;;;;;;;8.00;4.93;;;18.10;99.90;;;;;;4928031;28;20215;-55
2023/08/15 02:49:27;;;;;;;7.77;4.70;;;18.10;99.90;;;;;;4945214;28;20270;-48
2023/08/15 02:51:53;;;;;;;6.13;4.70;;;18.10;99.90;;;;;;4945484;28;20739;-53
2023/08/15 02:54:20;;;;;;;4.87;4.43;;;18.20;99.90;;;;;;4948813;28;20218;-50
2023/08/15 02:56:47;;;;;;;4.67;4.27;;;18.20;99.90;;;;;;4943320;28;20946;-57
2023/08/15 02:59:14;;;;;;;5.27;4.50;;;17.90;99.90;;;;;;4952719;28;20205;-52
2023/08/15 03:01:42;;;;;;;5.23;4.47;;;18.40;99.90;;;;;;4927332;28;20723;-57
2023/08/15 03:04:09;;;;;;;5.40;4.20;;;18.20;99.90;;;;;;4944717;29;20322;-50
2023/08/15 03:06:38;;;;;;;4.60;4.17;;;18.10;99.90;;;;;;4933986;28;20225;-53
2023/08/15 03:09:05;;;;;;;4.97;4.40;;;18.20;99.90;;;;;;4942204;28;20202;-55
2023/08/15 03:11:32;;;;;;;5.17;4.53;;;18.10;99.90;;;;;;4936915;28;20242;-52
2023/08/15 03:13:59;;;;;;;7.43;5.23;;;18.00;99.90;;;;;;4947175;28;20214;-50
2023/08/15 03:16:27;;;;;;;6.10;5.37;;;18.10;99.90;;;;;;4947347;28;20218;-52
2023/08/15 03:18:54;;;;;;;6.00;4.57;;;17.80;99.90;;;;;;4936796;28;20265;-54
2023/08/15 03:21:21;;;;;;;7.67;5.00;;;17.80;99.90;;;;;;4937475;28;20202;-52
2023/08/15 03:23:49;;;;;;;8.97;5.23;;;18.00;99.90;;;;;;4929476;28;20242;-55
2023/08/15 03:26:16;;;;;;;5.07;4.57;;;18.10;99.90;;;;;;4941279;28;20222;-51
2023/08/15 03:28:43;;;;;;;5.37;4.83;;;18.00;99.90;;;;;;4945712;28;20197;-54
2023/08/15 03:31:10;;;;;;;5.70;5.17;;;17.90;99.90;;;;;;4954326;28;20223;-51
2023/08/15 03:33:42;;;;;;;7.23;5.03;;;17.90;99.90;;;;;;4931154;28;20199;-51
2023/08/15 03:36:09;;;;;;;9.13;5.20;;;17.90;99.90;;;;;;4938216;29;20250;-51
2023/08/15 03:38:37;;;;;;;5.40;4.90;;;17.90;99.90;;;;;;4936110;28;20207;-52
2023/08/15 03:41:07;;;;;;;6.27;5.30;;;17.90;99.90;;;;;;4943803;28;20205;-51
2023/08/15 03:43:35;;;;;;;6.27;5.20;;;17.90;99.90;;;;;;4949559;28;20219;-51
2023/08/15 03:46:03;;;;;;;6.70;5.97;;;18.00;99.90;;;;;;4948590;28;20230;-52
2023/08/15 03:48:30;;;;;;;5.27;4.87;;;18.00;99.90;;;;;;4922064;28;20214;-54
2023/08/15 03:50:58;;;;;;;7.07;5.73;;;18.00;99.90;;;;;;4943057;28;20211;-47
2023/08/15 03:53:25;;;;;;;6.30;5.67;;;18.10;99.90;;;;;;4943335;28;20190;-51
2023/08/15 03:55:54;;;;;;;6.37;5.77;;;18.10;99.90;;;;;;4937751;29;20227;-51
2023/08/15 03:58:23;;;;;;;7.13;5.97;;;18.20;99.90;;;;;;4933060;29;20207;-52
2023/08/15 04:00:50;;;;;;;10.63;6.80;;;18.20;99.90;;;;;;4934511;28;20187;-52
2023/08/15 04:03:18;;;;;;;6.33;5.73;;;18.30;99.90;;;;;;4937292;28;20222;-56
2023/08/15 04:05:46;;;;;;;9.93;6.90;;;18.30;99.90;;;;;;4919390;29;20474;-51
2023/08/15 04:08:13;;;;;;;5.93;5.33;;;18.40;99.90;;;;;;4949219;28;20198;-53
2023/08/15 04:10:40;;;;;;;9.60;6.47;;;18.40;99.90;;;;;;4932173;28;20195;-54
2023/08/15 04:13:07;;;;;;;6.63;6.03;;;18.40;99.90;;;;;;4940885;28;20213;-52
2023/08/15 04:15:37;;;;;;;7.20;6.13;;;18.40;99.90;;;;;;4942897;29;20720;-53
2023/08/15 04:18:06;;;;;;;6.77;6.17;;;18.50;99.90;;;;;;4939119;29;20191;-51
2023/08/15 04:20:35;;;;;;;6.97;6.10;;;18.50;99.90;;;;;;4919766;28;20680;-47
2023/08/15 04:23:02;;;;;;;6.10;5.60;;;18.50;99.90;;;;;;4931629;29;20211;-56
2023/08/15 04:25:29;;;;;;;6.67;5.43;;;18.50;99.90;;;;;;4931020;28;20223;-51
2023/08/15 04:27:56;;;;;;;6.40;5.80;;;18.50;99.90;;;;;;4943571;28;20243;-48
2023/08/15 04:30:23;;;;;;;6.17;5.57;;;18.50;99.90;;;;;;4940929;28;20198;-57
2023/08/15 04:32:51;;;;;;;6.43;5.80;;;18.50;99.90;;;;;;4926774;29;20335;-49
2023/08/15 04:35:18;;;;;;;7.53;6.70;;;18.50;99.90;;;;;;4914250;28;20229;-55
2023/08/15 04:37:45;;;;;;;7.83;7.03;;;18.50;99.90;;;;;;4949881;28;20227;-54
2023/08/15 04:40:13;;;;;;;8.13;7.33;;;18.60;99.90;;;;;;4938209;28;21376;-55
2023/08/15 04:42:40;;;;;;;9.13;7.87;;;18.60;99.90;;;;;;4949921;28;20202;-53
2023/08/15 04:45:08;;;;;;;12.27;7.97;;;18.70;99.90;;;;;;4941723;28;20226;-54
2023/08/15 04:47:36;;;;;;;8.83;7.33;;;18.70;99.90;;;;;;4943781;28;20702;-56
2023/08/15 04:50:05;;;;;;;8.00;6.53;;;18.70;99.90;;;;;;4934867;28;20258;-49
2023/08/15 04:52:32;;;;;;;10.00;7.30;;;18.70;99.90;;;;;;4927395;28;20197;-58
2023/08/15 04:55:01;;;;;;;10.97;7.07;;;18.70;99.90;;;;;;4950710;28;20218;-49
2023/08/15 04:57:27;;;;;;;11.53;7.97;;;18.80;99.90;;;;;;4937759;28;20211;-55
2023/08/15 04:59:54;;;;;;;8.33;7.13;;;18.80;99.90;;;;;;4941524;28;20210;-51
2023/08/15 05:02:21;;;;;;;8.20;7.40;;;18.80;99.90;;;;;;4944507;28;20207;-51
2023/08/15 05:04:48;;;;;;;8.77;7.83;;;18.90;99.90;;;;;;4933953;28;20218;-48
2023/08/15 05:07:16;;;;;;;9.40;8.47;;;18.90;99.90;;;;;;4913075;28;20209;-53
2023/08/15 05:09:44;;;;;;;9.80;8.40;;;18.90;99.90;;;;;;4949410;28;20274;-54
2023/08/15 05:12:11;;;;;;;9.47;8.40;;;19.00;99.90;;;;;;4932714;28;20211;-55
2023/08/15 05:14:38;;;;;;;12.73;7.90;;;19.00;99.90;;;;;;4954149;28;20597;-56
2023/08/15 05:17:06;;;;;;;9.87;8.10;;;19.10;99.90;;;;;;4958189;28;20219;-55
2023/08/15 05:19:33;;;;;;;8.47;7.60;;;19.10;99.90;;;;;;4936067;29;20217;-53
2023/08/15 05:22:00;;;;;;;10.30;8.37;;;19.20;99.90;;;;;;4939504;28;20211;-49
2023/08/15 05:24:29;;;;;;;9.53;8.57;;;19.30;99.90;;;;;;4954048;28;20218;-51
2023/08/15 05:26:56;;;;;;;9.50;7.97;;;19.40;99.90;;;;;;4954728;28;20312;-51
2023/08/15 05:29:23;;;;;;;11.37;8.57;;;19.40;99.90;;;;;;4933997;29;20214;-54
2023/08/15 05:31:50;;;;;;;10.50;8.70;;;19.50;99.90;;;;;;4954583;28;20215;-46
2023/08/15 05:34:17;;;;;;;11.50;8.53;;;19.60;99.90;;;;;;4949129;28;20214;-53
2023/08/15 05:36:43;;;;;;;9.23;8.30;;;19.70;99.90;;;;;;4954072;28;20736;-54
2023/08/15 05:39:10;;;;;;;12.00;8.60;;;19.80;99.90;;;;;;4916602;28;20198;-52
2023/08/15 05:41:39;;;;;;;9.67;8.80;;;19.90;99.90;;;;;;4932229;28;20682;-50
2023/08/15 05:44:06;;;;;;;9.37;8.27;;;20.00;99.90;;;;;;4929183;28;20952;-50
2023/08/15 05:46:33;;;;;;;9.50;8.60;;;20.10;99.90;;;;;;4952593;28;20241;-48
2023/08/15 05:49:00;;;;;;;12.17;8.40;;;20.20;99.90;;;;;;4930289;28;20614;-51
2023/08/15 05:51:27;;;;;;;10.43;8.60;;;20.30;99.90;;;;;;4947223;28;20872;-47
2023/08/15 05:53:53;;;;;;;7.47;6.87;;;20.50;99.90;;;;;;4928496;28;20683;-48
2023/08/15 05:56:20;;;;;;;8.83;7.93;;;20.50;99.90;;;;;;4939537;28;20390;-51
2023/08/15 05:58:48;;;;;;;10.53;7.97;;;20.60;99.90;;;;;;4940344;28;20210;-50
2023/08/15 06:01:15;;;;;;;9.40;7.90;;;20.80;99.90;;;;;;4939382;28;20230;-46
2023/08/15 06:03:42;;;;;;;11.32;8.25;;;20.90;99.90;;;;;;4940870;28;20221;-47
2023/08/15 06:06:09;;;;;;;9.37;7.27;;;20.90;99.90;;;;;;4940151;28;20245;-46
2023/08/15 06:08:35;;;;;;;14.27;8.38;;;21.00;99.90;;;;;;4926407;28;20690;-48
2023/08/15 06:11:02;;;;;;;8.73;7.93;;;21.10;99.90;;;;;;4940020;28;20198;-53
2023/08/15 06:13:29;;;;;;;13.43;7.47;;;21.20;99.90;;;;;;4944447;28;20206;-51
2023/08/15 06:15:58;;;;;;;8.65;7.35;;;21.20;99.90;;;;;;4932587;28;20214;-51
2023/08/15 06:18:24;;;;;;;8.02;7.22;;;21.20;99.90;;;;;;4939653;28;20211;-50
2023/08/15 06:20:51;;;;;;;9.18;6.95;;;21.30;99.90;;;;;;4936616;28;20229;-50
2023/08/15 06:23:18;;;;;;;9.98;7.05;;;21.30;99.90;;;;;;4924774;28;20301;-47
2023/08/15 06:25:45;;;;;;;8.00;7.28;;;21.30;99.90;;;;;;4945623;28;20238;-52
2023/08/15 06:28:12;;;;;;;9.32;6.95;;;21.30;99.90;;;;;;4937312;28;20269;-50
2023/08/15 06:30:41;;;;;;;8.52;7.10;;;21.40;99.90;;;;;;4932572;28;20206;-52
2023/08/15 06:33:09;;;;;;;8.73;7.35;;;21.40;99.90;;;;;;4934686;28;20198;-56
2023/08/15 06:35:36;;;;;;;7.72;6.78;;;21.50;99.90;;;;;;4940666;28;20854;-50
2023/08/15 06:38:03;;;;;;;12.13;6.85;;;21.50;99.90;;;;;;4928110;28;20548;-54
2023/08/15 06:40:31;;;;;;;10.07;7.00;;;21.60;99.90;;;;;;4943103;28;20202;-48
2023/08/15 06:42:58;;;;;;;8.00;7.13;;;21.70;99.90;;;;;;4944248;28;20754;-55
2023/08/15 06:45:25;;;;;;;9.00;7.00;;;21.80;99.90;;;;;;4940007;28;20984;-52
2023/08/15 06:47:52;;;;;;;7.03;6.10;;;21.80;99.90;;;;;;4949396;28;20261;-51
2023/08/15 06:50:20;;;;;;;9.88;6.65;;;21.90;99.90;;;;;;4936490;28;20268;-48
2023/08/15 06:52:47;;;;;;;5.93;5.32;;;22.00;99.90;;;;;;4948517;28;20235;-54
2023/08/15 06:55:14;;;;;;;6.95;6.25;;;22.10;99.90;;;;;;4918981;28;20383;-49
2023/08/15 06:57:41;;;;;;;8.57;5.40;;;22.20;99.90;;;;;;4944292;28;20588;-51
2023/08/15 07:00:11;;;;;;;7.47;5.82;;;22.40;99.90;;;;;;4941402;28;20336;-55
2023/08/15 07:02:38;;;;;;;6.95;5.30;;;22.50;99.90;;;;;;4935981;28;20575;-50
2023/08/15 07:05:07;;;;;;;8.80;5.63;;;22.60;99.90;;;;;;4944032;28;20223;-51
2023/08/15 07:07:35;;;;;;;8.18;5.07;;;22.70;99.90;;;;;;4945693;28;20206;-52
2023/08/15 07:10:05;;;;;;;7.20;5.10;;;22.70;99.90;;;;;;4925866;28;20215;-48
2023/08/15 07:12:31;;;;;;;6.68;4.70;;;22.70;99.90;;;;;;4943661;28;20202;-53
2023/08/15 07:14:58;;;;;;;6.68;5.07;;;22.80;99.90;;;;;;4944204;28;20913;-47
2023/08/15 07:17:25;;;;;;;6.50;4.53;;;22.70;99.90;;;;;;4934364;28;20635;-48
2023/08/15 07:19:52;;;;;;;5.63;5.03;;;22.80;99.90;;;;;;4945755;28;20286;-50
2023/08/15 07:22:19;;;;;;;9.98;5.00;;;22.80;99.90;;;;;;4943238;28;20586;-54
2023/08/15 07:24:47;;;;;;;5.40;4.90;;;22.80;99.90;;;;;;4930249;28;20234;-55
2023/08/15 07:27:15;;;;;;;6.82;5.30;;;22.90;99.90;;;;;;4947838;28;20210;-51
2023/08/15 07:29:41;;;;;;;5.57;4.80;;;22.90;99.90;;;;;;4946625;28;20210;-52
2023/08/15 07:32:09;;;;;;;6.60;5.30;;;22.90;99.90;;;;;;4947721;28;20250;-53
2023/08/15 07:34:35;;;;;;;6.20;5.50;;;23.00;99.90;;;;;;4938463;28;20207;-53
2023/08/15 07:37:02;;;;;;;8.45;5.43;;;22.90;99.90;;;;;;4937443;28;20278;-52
2023/08/15 07:39:29;;;;;;;6.13;4.95;;;23.00;99.90;;;;;;4945994;28;20198;-48
2023/08/15 07:41:57;;;;;;;6.15;5.05;;;23.00;99.90;;;;;;4928035;28;20209;-49
2023/08/15 07:44:25;;;;;;;5.30;4.85;;;23.00;99.90;;;;;;4944909;28;20223;-51
2023/08/15 07:46:52;;;;;;;6.43;5.22;;;22.90;99.90;;;;;;4942347;29;20899;-50
2023/08/15 07:49:19;;;;;;;6.60;4.90;;;22.90;99.90;;;;;;4943591;28;20663;-52
2023/08/15 07:51:46;;;;;;;5.80;5.18;;;22.90;99.90;;;;;;4945364;28;20198;-53
2023/08/15 07:54:14;;;;;;;8.55;5.72;;;22.80;99.90;;;;;;4942505;28;20203;-52
2023/08/15 07:56:41;;;;;;;5.65;5.00;;;22.80;99.90;;;;;;4926069;28;20234;-55
2023/08/15 07:59:10;;;;;;;7.47;5.10;;;22.80;99.90;;;;;;4940405;28;20218;-52
2023/08/15 08:01:36;;;;;;;8.57;5.30;;;22.80;99.90;;;;;;4946291;28;20212;-51
2023/08/15 08:04:03;;;;;;;6.28;5.30;;;22.80;99.90;;;;;;4934926;28;21455;-51
2023/08/15 08:06:30;;;;;;;6.07;4.78;;;22.80;99.90;;;;;;4950663;28;20300;-49
2023/08/15 08:08:58;;;;;;;7.13;5.05;;;22.80;99.90;;;;;;4933716;28;20761;-48
2023/08/15 08:11:25;;;;;;;8.45;5.25;;;22.70;99.90;;;;;;4922135;28;20211;-50
2023/08/15 08:13:52;;;;;;;6.18;5.57;;;22.60;99.90;;;;;;4938962;28;20262;-48
2023/08/15 08:16:21;;;;;;;5.93;5.32;;;22.60;99.90;;;;;;4946993;28;20242;-49
2023/08/15 08:18:48;;;;;;;5.78;5.18;;;22.60;99.90;;;;;;4939789;28;20929;-55
2023/08/15 08:21:15;;;;;;;6.45;5.55;;;22.50;99.90;;;;;;4949476;28;20289;-51
2023/08/15 08:23:42;;;;;;;6.07;5.55;;;22.50;99.90;;;;;;4947397;28;20226;-52
2023/08/15 08:26:09;;;;;;;7.75;5.78;;;22.50;99.90;;;;;;4936022;28;21640;-47
2023/08/15 08:28:35;;;;;;;7.40;5.70;;;22.40;99.90;;;;;;4930584;28;20263;-53
2023/08/15 08:31:02;;;;;;;8.85;6.47;;;22.30;99.90;;;;;;4948057;28;20269;-50
2023/08/15 08:33:31;;;;;;;8.00;6.45;;;22.20;99.90;;;;;;4941724;28;20844;-51
2023/08/15 08:35:57;;;;;;;7.10;6.30;;;22.20;99.90;;;;;;4938147;28;21054;-53
2023/08/15 08:38:25;;;;;;;7.45;6.45;;;22.10;99.90;;;;;;4940633;28;20210;-52
2023/08/15 08:40:54;;;;;;;9.63;6.78;;;22.10;99.90;;;;;;4932134;28;20199;-53
2023/08/15 08:43:22;;;;;;;12.95;7.32;;;22.10;99.90;;;;;;4926596;28;20595;-47
2023/08/15 08:45:49;;;;;;;8.90;6.95;;;22.00;99.90;;;;;;4940947;28;20603;-53
2023/08/15 08:48:18;;;;;;;8.57;6.72;;;22.00;99.90;;;;;;4945390;28;20667;-49
2023/08/15 08:50:46;;;;;;;11.88;7.43;;;22.00;99.90;;;;;;4932345;28;20206;-53
2023/08/15 08:53:13;;;;;;;8.30;6.70;;;21.90;99.90;;;;;;4945036;28;20257;-52
2023/08/15 08:55:40;;;;;;;8.73;7.80;;;21.90;99.90;;;;;;4936539;28;20225;-54
2023/08/15 08:58:11;;;;;;;9.50;7.30;;;21.80;99.90;;;;;;4942235;28;20209;-50
2023/08/15 09:00:39;;;;;;;8.38;7.55;;;21.80;99.90;;;;;;4921753;28;20691;-54
2023/08/15 09:03:06;;;;;;;8.52;7.40;;;21.70;99.90;;;;;;4943849;29;20226;-51
2023/08/15 09:05:33;;;;;;;7.90;7.13;;;21.70;99.90;;;;;;4948199;28;20221;-51
2023/08/15 09:08:01;;;;;;;7.57;6.88;;;21.70;99.90;;;;;;4929937;28;20195;-53
2023/08/15 09:10:29;;;;;;;8.90;8.02;;;21.80;99.90;;;;;;4937274;28;20207;-52
2023/08/15 09:12:58;;;;;;;8.13;7.32;;;21.80;99.90;;;;;;4935322;28;21426;-48
2023/08/15 09:15:25;;;;;;;7.78;6.90;;;21.80;99.90;;;;;;4927861;28;20234;-48
2023/08/15 09:17:58;;;;;;;8.30;7.45;;;21.80;99.90;;;;;;4933531;28;20901;-49
2023/08/15 09:20:25;;;;;;;7.25;6.65;;;21.90;99.90;;;;;;4949715;28;20622;-54
2023/08/15 09:22:55;;;;;;;9.35;7.57;;;21.90;99.90;;;;;;4932704;28;20790;-52
2023/08/15 09:25:26;;;;;;;8.25;7.22;;;22.00;99.90;;;;;;4950489;28;20245;-50
2023/08/15 09:27:53;;;;;;;8.10;7.35;;;22.00;99.90;;;;;;4940186;28;20203;-48
2023/08/15 09:30:21;;;;;;;8.48;7.15;;;22.10;99.90;;;;;;4944181;28;20317;-50
2023/08/15 09:32:48;;;;;;;7.43;6.72;;;22.10;99.90;;;;;;4926732;28;20296;-54
2023/08/15 09:35:17;;;;;;;8.35;6.90;;;22.20;99.90;;;;;;4946714;28;20214;-48
2023/08/15 09:37:45;;;;;;;7.30;6.32;;;22.40;99.90;;;;;;4936657;28;20293;-50
2023/08/15 09:40:14;;;;;;;6.72;5.60;;;22.40;99.90;;;;;;4947712;28;20605;-52
2023/08/15 09:42:43;;;;;;;6.43;5.82;;;22.40;99.90;;;;;;4931257;28;20664;-51
2023/08/15 09:45:11;;;;;;;6.20;5.60;;;22.50;99.90;;;;;;4935759;28;20222;-46
2023/08/15 09:47:39;;;;;;;9.18;5.65;;;22.70;99.90;;;;;;4919435;28;20243;-52
2023/08/15 09:50:07;;;;;;;6.97;5.00;;;22.60;99.90;;;;;;4946489;28;20215;-49
2023/08/15 09:52:36;;;;;;;5.43;4.97;;;22.80;99.90;;;;;;4947312;28;20205;-54
2023/08/15 09:55:03;;;;;;;7.97;4.60;;;23.00;99.90;;;;;;4936125;28;20237;-50
2023/08/15 09:57:31;;;;;;;4.78;4.35;;;23.00;99.90;;;;;;4945838;28;20198;-52
2023/08/15 09:59:59;;;;;;;5.90;4.07;;;23.00;99.90;;;;;;4940419;28;20224;-48
2023/08/15 10:02:28;;;;;;;5.78;4.38;;;23.10;99.90;;;;;;4926181;28;20211;-51
2023/08/15 10:05:00;;;;;;;6.82;4.45;;;23.20;99.90;;;;;;4943057;28;20274;-51
2023/08/15 10:07:31;;;;;;;4.80;4.30;;;23.40;99.90;;;;;;4948285;28;20290;-48
2023/08/15 10:10:01;;;;;;;5.80;4.40;;;23.60;99.90;;;;;;4931522;28;20302;-52
2023/08/15 10:12:29;;;;;;;5.90;4.35;;;23.80;99.90;;;;;;4944500;28;20199;-50
2023/08/15 10:14:57;;;;;;;5.50;4.65;;;24.00;99.90;;;;;;4933944;28;20222;-49
2023/08/15 10:17:26;;;;;;;6.97;4.38;;;24.10;99.90;;;;;;4946608;28;20206;-53
2023/08/15 10:19:55;;;;;;;6.63;4.15;;;24.10;99.90;;;;;;4924511;28;20217;-50
2023/08/15 10:22:23;;;;;;;4.35;4.05;;;24.10;99.90;;;;;;4950366;28;20256;-52
2023/08/15 10:24:50;;;;;;;4.65;4.00;;;24.20;99.90;;;;;;4930899;28;20274;-55
2023/08/15 10:27:20;;;;;;;8.35;3.80;;;24.30;99.90;;;;;;4949024;28;20265;-51
2023/08/15 10:29:57;;;;;;;4.13;3.25;;;24.40;99.90;;;;;;4929266;28;20278;-50
2023/08/15 10:32:26;;;;;;;5.05;3.60;;;24.50;99.90;;;;;;4944242;28;20221;-53
2023/08/15 10:34:54;;;;;;;3.92;3.53;;;24.60;99.90;;;;;;4918273;28;20226;-54
2023/08/15 10:37:29;;;;;;;4.32;3.78;;;24.70;99.90;;;;;;4945202;28;20323;-57
2023/08/15 10:40:10;;;;;;;3.95;3.20;;;24.80;99.90;;;;;;4931152;28;20319;-53
2023/08/15 10:43:10;;;;;;;8.45;4.20;;;24.90;99.90;;;;;;4942174;28;21004;-56
2023/08/15 10:45:39;;;;;;;3.38;3.15;;;25.00;99.90;;;;;;4932901;28;20226;-52
2023/08/15 10:48:08;;;;;;;5.00;3.75;;;24.90;99.90;;;;;;4944236;28;20198;-50
2023/08/15 10:50:36;;;;;;;7.03;4.07;;;24.90;99.90;;;;;;4920175;28;20215;-54
2023/08/15 10:53:05;;;;;;;4.00;3.70;;;25.40;99.90;;;;;;4936574;28;20191;-51
2023/08/15 10:55:34;;;;;;;4.03;3.67;;;25.00;99.90;;;;;;4935140;28;20468;-56
2023/08/15 10:58:05;;;;;;;3.70;3.40;;;25.10;99.90;;;;;;4948471;28;20201;-57
2023/08/15 11:00:32;;;;;;;4.35;4.05;;;25.50;99.90;;;;;;4933643;28;20203;-55
2023/08/15 11:02:59;;;;;;;5.50;3.88;;;25.10;99.90;;;;;;4937650;28;20288;-57
2023/08/15 11:05:28;;;;;;;4.32;4.03;;;25.80;99.90;;;;;;4918193;28;20215;-55
2023/08/15 11:07:55;;;;;;;4.43;4.10;;;25.50;99.90;;;;;;4938304;28;20277;-51
2023/08/15 11:10:23;;;;;;;5.13;4.72;;;25.60;99.90;;;;;;4928876;28;20277;-55
2023/08/15 11:12:51;;;;;;;5.88;4.35;;;25.70;99.90;;;;;;4947218;28;20619;-49
2023/08/15 11:15:18;;;;;;;4.30;4.00;;;25.60;99.90;;;;;;4943637;28;20285;-51
2023/08/15 11:17:48;;;;;;;4.25;3.95;;;25.60;99.90;;;;;;4946739;28;20210;-53
2023/08/15 11:20:20;;;;;;;5.10;4.38;;;25.60;99.90;;;;;;4922041;28;20214;-51
2023/08/15 11:22:57;;;;;;;6.60;4.80;;;25.60;99.90;;;;;;4911859;28;20205;-50
2023/08/15 11:25:24;;;;;;;6.25;5.07;;;25.50;99.90;;;;;;4943957;28;20564;-57
2023/08/15 11:27:51;;;;;;;4.90;4.50;;;25.70;99.90;;;;;;4929111;28;20251;-52
2023/08/15 11:30:18;;;;;;;6.57;4.63;;;25.80;99.90;;;;;;4949152;28;20210;-55
2023/08/15 11:32:45;;;;;;;4.95;4.53;;;25.80;99.90;;;;;;4942263;28;20210;-51
2023/08/15 11:35:13;;;;;;;5.90;4.70;;;25.80;99.90;;;;;;4954826;28;20222;-57
2023/08/15 11:37:42;;;;;;;4.95;4.55;;;25.80;99.90;;;;;;4920061;28;20209;-50
2023/08/15 11:40:10;;;;;;;5.82;5.30;;;25.90;99.90;;;;;;4929917;28;20211;-52
2023/08/15 11:42:38;;;;;;;5.63;4.93;;;26.00;99.90;;;;;;4920556;28;20290;-52
2023/08/15 11:45:13;;;;;;;5.15;4.75;;;26.20;99.90;;;;;;4943934;28;20276;-49
2023/08/15 11:47:56;;;;;;;5.72;5.10;;;26.30;99.90;;;;;;4944214;28;20309;-55
2023/08/15 11:50:26;;;;;;;5.43;4.97;;;26.50;99.90;;;;;;4946585;28;20195;-56
2023/08/15 11:52:53;;;;;;;5.45;4.95;;;26.30;99.90;;;;;;4926713;28;20221;-56
2023/08/15 11:55:22;;;;;;;6.28;5.72;;;26.30;99.90;;;;;;4949046;28;20967;-56
2023/08/15 11:57:50;;;;;;;5.63;5.25;;;26.00;99.90;;;;;;4938767;28;20729;-54
2023/08/15 12:00:19;;;;;;;6.05;5.53;;;25.70;99.90;;;;;;4937250;28;20190;-53
2023/08/15 12:02:48;;;;;;;13.25;9.20;;;25.40;99.90;;;;;;4945532;28;20203;-49
2023/08/15 12:05:17;;;;;;;11.25;10.07;;;24.70;99.90;;;;;;4943869;28;20515;-50
2023/08/15 12:07:44;;;;;;;10.57;9.48;;;24.10;99.90;;;;;;4928669;28;20306;-49
2023/08/15 12:10:13;;;;;;;11.30;10.27;;;23.80;99.90;;;;;;4938713;28;20220;-54
2023/08/15 12:12:43;;;;;;;12.65;11.40;;;23.70;99.90;;;;;;4940286;28;20215;-51
2023/08/15 12:15:11;;;;;;;14.70;13.27;;;23.60;99.90;;;;;;4943733;28;20229;-49
2023/08/15 12:17:38;;;;;;;15.27;13.65;;;22.90;99.90;;;;;;4943685;28;20226;-50
2023/08/15 12:20:09;;;;;;;15.70;14.18;;;23.60;99.90;;;;;;4944117;28;20203;-55
2023/08/15 12:22:37;;;;;;;17.20;15.48;;;23.60;99.90;;;;;;4926626;28;20285;-50
2023/08/15 12:25:05;;;;;;;16.80;15.27;;;23.80;99.90;;;;;;4939584;28;20293;-55
2023/08/15 12:27:32;;;;;;;17.02;15.27;;;23.90;99.90;;;;;;4940363;28;20342;-50
2023/08/15 12:30:00;;;;;;;16.05;14.23;;;23.50;99.90;;;;;;4937421;28;20195;-55
2023/08/15 12:32:27;;;;;;;17.30;15.50;;;23.90;99.90;;;;;;4948469;28;20187;-56
2023/08/15 12:34:53;;;;;;;16.45;14.68;;;23.90;99.90;;;;;;4944815;28;20230;-56
2023/08/15 12:37:20;;;;;;;16.67;14.98;;;23.60;99.90;;;;;;4945712;28;20190;-53
2023/08/15 12:39:47;;;;;;;17.48;15.52;;;23.70;99.90;;;;;;4930188;28;20695;-54
2023/08/15 12:42:14;;;;;;;17.65;15.95;;;23.30;99.90;;;;;;4932884;28;20198;-55
2023/08/15 12:44:42;;;;;;;16.83;15.02;;;23.60;99.90;;;;;;4943104;28;20230;-52
2023/08/15 12:47:10;;;;;;;17.00;14.48;;;23.60;99.90;;;;;;4943491;28;20675;-53
2023/08/15 12:49:37;;;;;;;17.98;13.93;;;23.40;99.90;;;;;;4944015;28;20221;-49